sensor_id;sensor_type;location;lat;lon;timestamp;temperature;humidity
34698;DHT22;61391;50.922;6.928;2023-06-26T00:00:05;24.30;99.90
34698;DHT22;61391;50.922;6.928;2023-06-26T00:05:53;24.30;99.90
34698;DHT22;61391;50.922;6.928;2023-06-26T00:08:19;24.30;99.90
34698;DHT22;61391;50.922;6.928;2023-06-26T00:14:07;24.20;99.90
34698;DHT22;61391;50.922;6.928;2023-06-26T00:16:32;24.20;99.90
34698;DHT22;61391;50.922;6.928;2023-06-26T00:18:58;24.30;99.90
34698;DHT22;61391;50.922;6.928;2023-06-26T00:21:26;24.10;99.90
34698;DHT22;61391;50.922;6.928;2023-06-26T00:23:52;24.10;99.90
34698;DHT22;61391;50.922;6.928;2023-06-26T00:26:18;24.20;99.90
34698;DHT22;61391;50.922;6.928;2023-06-26T00:28:45;24.20;99.90
34698;DHT22;61391;50.922;6.928;2023-06-26T00:31:10;24.10;99.90
34698;DHT22;61391;50.922;6.928;2023-06-26T00:33:36;24.00;99.90
34698;DHT22;61391;50.922;6.928;2023-06-26T00:39:24;23.80;99.90
34698;DHT22;61391;50.922;6.928;2023-06-26T00:41:51;23.80;99.90
34698;DHT22;61391;50.922;6.928;2023-06-26T00:44:19;24.00;99.90
34698;DHT22;61391;50.922;6.928;2023-06-26T00:46:45;24.10;99.90
34698;DHT22;61391;50.922;6.928;2023-06-26T00:49:11;24.20;99.90
34698;DHT22;61391;50.922;6.928;2023-06-26T00:51:36;23.90;99.90
34698;DHT22;61391;50.922;6.928;2023-06-26T00:54:03;23.80;99.90
34698;DHT22;61391;50.922;6.928;2023-06-26T00:59:51;23.90;99.90
34698;DHT22;61391;50.922;6.928;2023-06-26T01:02:16;23.80;99.90
34698;DHT22;61391;50.922;6.928;2023-06-26T01:04:54;23.80;99.90
34698;DHT22;61391;50.922;6.928;2023-06-26T01:07:21;23.80;99.90
34698;DHT22;61391;50.922;6.928;2023-06-26T01:09:48;23.70;99.90
34698;DHT22;61391;50.922;6.928;2023-06-26T01:12:14;23.70;99.90
34698;DHT22;61391;50.922;6.928;2023-06-26T01:14:40;23.70;99.90
34698;DHT22;61391;50.922;6.928;2023-06-26T01:17:06;23.40;99.90
34698;DHT22;61391;50.922;6.928;2023-06-26T01:19:33;23.40;99.90
34698;DHT22;61391;50.922;6.928;2023-06-26T01:25:33;23.20;99.90
34698;DHT22;61391;50.922;6.928;2023-06-26T01:28:07;23.30;99.90
34698;DHT22;61391;50.922;6.928;2023-06-26T01:30:37;23.10;99.90
34698;DHT22;61391;50.922;6.928;2023-06-26T01:33:03;23.10;99.90
34698;DHT22;61391;50.922;6.928;2023-06-26T01:35:29;23.00;99.90
34698;DHT22;61391;50.922;6.928;2023-06-26T01:38:18;23.20;99.90
34698;DHT22;61391;50.922;6.928;2023-06-26T01:40:44;23.20;99.90
34698;DHT22;61391;50.922;6.928;2023-06-26T01:44:06;23.20;99.90
34698;DHT22;61391;50.922;6.928;2023-06-26T01:46:21;23.20;99.90
34698;DHT22;61391;50.922;6.928;2023-06-26T01:48:55;23.10;99.90
34698;DHT22;61391;50.922;6.928;2023-06-26T01:51:30;23.10;99.90
34698;DHT22;61391;50.922;6.928;2023-06-26T01:57:18;23.00;99.90
34698;DHT22;61391;50.922;6.928;2023-06-26T01:59:46;23.00;99.90
34698;DHT22;61391;50.922;6.928;2023-06-26T02:02:12;23.10;99.90
34698;DHT22;61391;50.922;6.928;2023-06-26T02:04:38;23.00;99.90
34698;DHT22;61391;50.922;6.928;2023-06-26T02:07:03;22.80;99.90
34698;DHT22;61391;50.922;6.928;2023-06-26T02:09:29;22.80;99.90
34698;DHT22;61391;50.922;6.928;2023-06-26T02:11:55;22.80;99.90
34698;DHT22;61391;50.922;6.928;2023-06-26T02:14:20;23.00;99.90
34698;DHT22;61391;50.922;6.928;2023-06-26T02:16:46;23.10;99.90
34698;DHT22;61391;50.922;6.928;2023-06-26T02:19:11;23.10;99.90
34698;DHT22;61391;50.922;6.928;2023-06-26T02:21:37;22.70;99.90
34698;DHT22;61391;50.922;6.928;2023-06-26T02:24:04;22.70;99.90
34698;DHT22;61391;50.922;6.928;2023-06-26T02:26:30;22.70;99.90
34698;DHT22;61391;50.922;6.928;2023-06-26T02:28:55;22.70;99.90
34698;DHT22;61391;50.922;6.928;2023-06-26T02:31:21;22.60;99.90
34698;DHT22;61391;50.922;6.928;2023-06-26T02:33:47;22.40;99.90
34698;DHT22;61391;50.922;6.928;2023-06-26T02:36:12;22.30;99.90
34698;DHT22;61391;50.922;6.928;2023-06-26T02:38:38;22.40;99.90
34698;DHT22;61391;50.922;6.928;2023-06-26T02:41:03;22.60;99.90
34698;DHT22;61391;50.922;6.928;2023-06-26T02:43:29;22.60;99.90
34698;DHT22;61391;50.922;6.928;2023-06-26T02:45:54;22.60;99.90
34698;DHT22;61391;50.922;6.928;2023-06-26T02:48:20;22.40;99.90
34698;DHT22;61391;50.922;6.928;2023-06-26T02:50:46;22.20;99.90
34698;DHT22;61391;50.922;6.928;2023-06-26T02:53:12;22.30;99.90
34698;DHT22;61391;50.922;6.928;2023-06-26T02:55:38;22.50;99.90
34698;DHT22;61391;50.922;6.928;2023-06-26T02:58:03;22.90;99.90
34698;DHT22;61391;50.922;6.928;2023-06-26T03:00:29;22.70;99.90
34698;DHT22;61391;50.922;6.928;2023-06-26T03:02:55;22.80;99.90
34698;DHT22;61391;50.922;6.928;2023-06-26T03:05:21;22.80;99.90
34698;DHT22;61391;50.922;6.928;2023-06-26T03:07:46;22.80;99.90
34698;DHT22;61391;50.922;6.928;2023-06-26T03:10:12;22.70;99.90
34698;DHT22;61391;50.922;6.928;2023-06-26T03:12:38;22.60;99.90
34698;DHT22;61391;50.922;6.928;2023-06-26T03:15:03;22.80;99.90
34698;DHT22;61391;50.922;6.928;2023-06-26T03:17:29;22.80;99.90
34698;DHT22;61391;50.922;6.928;2023-06-26T03:19:55;23.00;99.90
34698;DHT22;61391;50.922;6.928;2023-06-26T03:22:20;23.00;99.90
34698;DHT22;61391;50.922;6.928;2023-06-26T03:24:46;23.20;99.90
34698;DHT22;61391;50.922;6.928;2023-06-26T03:27:11;23.40;99.90
34698;DHT22;61391;50.922;6.928;2023-06-26T03:29:37;23.40;99.90
34698;DHT22;61391;50.922;6.928;2023-06-26T03:32:03;23.40;99.90
34698;DHT22;61391;50.922;6.928;2023-06-26T03:34:28;23.40;99.90
34698;DHT22;61391;50.922;6.928;2023-06-26T03:36:54;23.50;99.90
34698;DHT22;61391;50.922;6.928;2023-06-26T03:39:19;23.50;99.90
34698;DHT22;61391;50.922;6.928;2023-06-26T03:41:45;23.50;99.90
34698;DHT22;61391;50.922;6.928;2023-06-26T03:44:10;23.50;99.90
34698;DHT22;61391;50.922;6.928;2023-06-26T03:46:37;23.60;99.90
34698;DHT22;61391;50.922;6.928;2023-06-26T03:49:03;23.50;99.90
34698;DHT22;61391;50.922;6.928;2023-06-26T03:51:28;23.40;99.90
34698;DHT22;61391;50.922;6.928;2023-06-26T03:53:54;23.40;99.90
34698;DHT22;61391;50.922;6.928;2023-06-26T03:56:19;23.20;99.90
34698;DHT22;61391;50.922;6.928;2023-06-26T03:58:45;23.30;99.90
34698;DHT22;61391;50.922;6.928;2023-06-26T04:01:10;23.40;99.90
34698;DHT22;61391;50.922;6.928;2023-06-26T04:03:36;23.50;99.90
34698;DHT22;61391;50.922;6.928;2023-06-26T04:06:02;23.60;99.90
34698;DHT22;61391;50.922;6.928;2023-06-26T04:11:49;23.80;99.90
34698;DHT22;61391;50.922;6.928;2023-06-26T04:14:14;23.70;99.90
34698;DHT22;61391;50.922;6.928;2023-06-26T04:16:40;23.70;99.90
34698;DHT22;61391;50.922;6.928;2023-06-26T04:19:05;23.60;99.90
34698;DHT22;61391;50.922;6.928;2023-06-26T04:21:31;23.60;99.90
34698;DHT22;61391;50.922;6.928;2023-06-26T04:23:57;23.70;99.90
34698;DHT22;61391;50.922;6.928;2023-06-26T04:26:22;23.70;99.90
34698;DHT22;61391;50.922;6.928;2023-06-26T04:28:48;23.80;99.90
34698;DHT22;61391;50.922;6.928;2023-06-26T04:31:13;23.70;99.90
34698;DHT22;61391;50.922;6.928;2023-06-26T04:33:39;23.70;99.90
34698;DHT22;61391;50.922;6.928;2023-06-26T04:36:05;23.60;99.90
34698;DHT22;61391;50.922;6.928;2023-06-26T04:38:32;23.60;99.90
34698;DHT22;61391;50.922;6.928;2023-06-26T04:40:59;23.50;99.90
34698;DHT22;61391;50.922;6.928;2023-06-26T04:43:24;23.50;99.90
34698;DHT22;61391;50.922;6.928;2023-06-26T04:45:50;23.60;99.90
34698;DHT22;61391;50.922;6.928;2023-06-26T04:51:38;23.70;99.90
34698;DHT22;61391;50.922;6.928;2023-06-26T04:54:06;23.60;99.90
34698;DHT22;61391;50.922;6.928;2023-06-26T04:56:32;23.60;99.90
34698;DHT22;61391;50.922;6.928;2023-06-26T04:58:58;23.70;99.90
34698;DHT22;61391;50.922;6.928;2023-06-26T05:01:23;23.60;99.90
34698;DHT22;61391;50.922;6.928;2023-06-26T05:03:49;23.50;99.90
34698;DHT22;61391;50.922;6.928;2023-06-26T05:06:15;23.50;99.90
34698;DHT22;61391;50.922;6.928;2023-06-26T05:08:40;23.40;99.90
34698;DHT22;61391;50.922;6.928;2023-06-26T05:11:06;23.40;99.90
34698;DHT22;61391;50.922;6.928;2023-06-26T05:13:31;23.50;99.90
34698;DHT22;61391;50.922;6.928;2023-06-26T05:15:57;23.70;99.90
34698;DHT22;61391;50.922;6.928;2023-06-26T05:18:23;23.90;99.90
34698;DHT22;61391;50.922;6.928;2023-06-26T05:24:12;23.70;99.90
34698;DHT22;61391;50.922;6.928;2023-06-26T05:26:39;23.80;99.90
34698;DHT22;61391;50.922;6.928;2023-06-26T05:29:04;23.80;99.90
34698;DHT22;61391;50.922;6.928;2023-06-26T05:31:33;23.70;99.90
34698;DHT22;61391;50.922;6.928;2023-06-26T05:34:03;23.80;99.90
34698;DHT22;61391;50.922;6.928;2023-06-26T05:36:31;23.80;99.90
34698;DHT22;61391;50.922;6.928;2023-06-26T05:42:21;24.10;99.90
34698;DHT22;61391;50.922;6.928;2023-06-26T05:44:47;24.20;99.90
34698;DHT22;61391;50.922;6.928;2023-06-26T05:47:12;24.10;99.90
34698;DHT22;61391;50.922;6.928;2023-06-26T05:49:39;24.00;99.90
34698;DHT22;61391;50.922;6.928;2023-06-26T05:52:05;24.10;99.90
34698;DHT22;61391;50.922;6.928;2023-06-26T05:54:31;24.10;99.90
34698;DHT22;61391;50.922;6.928;2023-06-26T05:56:57;24.10;99.90
34698;DHT22;61391;50.922;6.928;2023-06-26T05:59:26;23.80;99.90
34698;DHT22;61391;50.922;6.928;2023-06-26T06:01:52;23.60;99.90
34698;DHT22;61391;50.922;6.928;2023-06-26T06:04:18;23.60;99.90
34698;DHT22;61391;50.922;6.928;2023-06-26T06:06:44;23.70;99.90
34698;DHT22;61391;50.922;6.928;2023-06-26T06:09:11;24.20;99.90
34698;DHT22;61391;50.922;6.928;2023-06-26T06:11:38;24.20;99.90
34698;DHT22;61391;50.922;6.928;2023-06-26T06:14:05;24.40;99.90
34698;DHT22;61391;50.922;6.928;2023-06-26T06:16:30;24.30;99.90
34698;DHT22;61391;50.922;6.928;2023-06-26T06:18:56;24.30;99.90
34698;DHT22;61391;50.922;6.928;2023-06-26T06:21:22;24.30;99.90
34698;DHT22;61391;50.922;6.928;2023-06-26T06:23:47;24.20;99.90
34698;DHT22;61391;50.922;6.928;2023-06-26T06:26:13;24.40;99.90
34698;DHT22;61391;50.922;6.928;2023-06-26T06:32:01;24.50;99.90
34698;DHT22;61391;50.922;6.928;2023-06-26T06:34:26;24.20;99.90
34698;DHT22;61391;50.922;6.928;2023-06-26T06:36:52;24.00;99.90
34698;DHT22;61391;50.922;6.928;2023-06-26T06:39:18;23.90;99.90
34698;DHT22;61391;50.922;6.928;2023-06-26T06:41:43;24.10;99.90
34698;DHT22;61391;50.922;6.928;2023-06-26T06:44:09;24.30;99.90
34698;DHT22;61391;50.922;6.928;2023-06-26T06:46:34;24.40;99.90
34698;DHT22;61391;50.922;6.928;2023-06-26T06:49:00;24.50;99.90
34698;DHT22;61391;50.922;6.928;2023-06-26T06:51:27;24.30;99.90
34698;DHT22;61391;50.922;6.928;2023-06-26T06:53:52;24.50;99.90
34698;DHT22;61391;50.922;6.928;2023-06-26T06:56:19;24.60;99.90
34698;DHT22;61391;50.922;6.928;2023-06-26T06:58:44;24.50;99.90
34698;DHT22;61391;50.922;6.928;2023-06-26T07:01:12;24.80;99.90
34698;DHT22;61391;50.922;6.928;2023-06-26T07:03:38;25.10;99.90
34698;DHT22;61391;50.922;6.928;2023-06-26T07:06:04;25.40;99.90
34698;DHT22;61391;50.922;6.928;2023-06-26T07:08:30;25.70;99.90
34698;DHT22;61391;50.922;6.928;2023-06-26T07:10:56;25.70;99.90
34698;DHT22;61391;50.922;6.928;2023-06-26T07:13:26;25.80;99.90
34698;DHT22;61391;50.922;6.928;2023-06-26T07:15:52;25.70;99.90
34698;DHT22;61391;50.922;6.928;2023-06-26T07:18:17;25.90;99.90
34698;DHT22;61391;50.922;6.928;2023-06-26T07:20:43;26.20;99.90
34698;DHT22;61391;50.922;6.928;2023-06-26T07:23:09;26.30;99.90
34698;DHT22;61391;50.922;6.928;2023-06-26T07:25:35;26.50;99.90
34698;DHT22;61391;50.922;6.928;2023-06-26T07:28:00;26.80;99.90
34698;DHT22;61391;50.922;6.928;2023-06-26T07:30:26;26.90;99.90
34698;DHT22;61391;50.922;6.928;2023-06-26T07:32:55;26.70;99.90
34698;DHT22;61391;50.922;6.928;2023-06-26T07:35:20;26.40;99.90
34698;DHT22;61391;50.922;6.928;2023-06-26T07:37:46;26.00;99.90
34698;DHT22;61391;50.922;6.928;2023-06-26T07:40:12;25.70;99.90
34698;DHT22;61391;50.922;6.928;2023-06-26T07:42:38;25.70;99.90
34698;DHT22;61391;50.922;6.928;2023-06-26T07:45:04;26.20;99.90
34698;DHT22;61391;50.922;6.928;2023-06-26T07:47:37;27.80;99.90
34698;DHT22;61391;50.922;6.928;2023-06-26T07:50:03;29.30;99.90
34698;DHT22;61391;50.922;6.928;2023-06-26T07:52:28;29.70;99.90
34698;DHT22;61391;50.922;6.928;2023-06-26T07:54:55;29.90;99.90
34698;DHT22;61391;50.922;6.928;2023-06-26T07:57:23;29.40;99.90
34698;DHT22;61391;50.922;6.928;2023-06-26T07:59:49;29.20;99.90
34698;DHT22;61391;50.922;6.928;2023-06-26T08:02:15;30.10;99.90
34698;DHT22;61391;50.922;6.928;2023-06-26T08:04:40;30.80;99.90
34698;DHT22;61391;50.922;6.928;2023-06-26T08:07:06;30.80;99.90
34698;DHT22;61391;50.922;6.928;2023-06-26T08:09:32;29.90;99.90
34698;DHT22;61391;50.922;6.928;2023-06-26T08:11:59;29.80;99.90
34698;DHT22;61391;50.922;6.928;2023-06-26T08:14:24;29.70;99.90
34698;DHT22;61391;50.922;6.928;2023-06-26T08:16:50;29.40;99.90
34698;DHT22;61391;50.922;6.928;2023-06-26T08:22:37;29.00;99.90
34698;DHT22;61391;50.922;6.928;2023-06-26T08:25:03;29.20;99.90
34698;DHT22;61391;50.922;6.928;2023-06-26T08:27:31;29.80;99.90
34698;DHT22;61391;50.922;6.928;2023-06-26T08:29:57;29.80;99.90
34698;DHT22;61391;50.922;6.928;2023-06-26T08:32:22;29.10;99.90
34698;DHT22;61391;50.922;6.928;2023-06-26T08:34:48;28.30;99.90
34698;DHT22;61391;50.922;6.928;2023-06-26T08:37:14;27.90;99.90
34698;DHT22;61391;50.922;6.928;2023-06-26T08:39:40;27.90;99.90
34698;DHT22;61391;50.922;6.928;2023-06-26T08:42:06;28.20;99.90
34698;DHT22;61391;50.922;6.928;2023-06-26T08:44:32;28.20;99.90
34698;DHT22;61391;50.922;6.928;2023-06-26T08:47:00;28.50;99.90
34698;DHT22;61391;50.922;6.928;2023-06-26T08:49:43;29.00;99.90
34698;DHT22;61391;50.922;6.928;2023-06-26T08:52:22;29.50;99.90
34698;DHT22;61391;50.922;6.928;2023-06-26T08:54:54;29.20;99.90
34698;DHT22;61391;50.922;6.928;2023-06-26T08:57:22;29.10;99.90
34698;DHT22;61391;50.922;6.928;2023-06-26T08:59:48;28.70;99.90
34698;DHT22;61391;50.922;6.928;2023-06-26T09:02:14;28.40;99.90
34698;DHT22;61391;50.922;6.928;2023-06-26T09:04:40;28.00;99.90
34698;DHT22;61391;50.922;6.928;2023-06-26T09:10:28;27.60;99.90
34698;DHT22;61391;50.922;6.928;2023-06-26T09:12:57;28.40;99.90
34698;DHT22;61391;50.922;6.928;2023-06-26T09:15:23;28.30;99.90
34698;DHT22;61391;50.922;6.928;2023-06-26T09:17:49;28.30;99.90
34698;DHT22;61391;50.922;6.928;2023-06-26T09:20:15;28.40;99.90
34698;DHT22;61391;50.922;6.928;2023-06-26T09:22:47;29.70;99.90
34698;DHT22;61391;50.922;6.928;2023-06-26T09:25:13;30.50;99.90
34698;DHT22;61391;50.922;6.928;2023-06-26T09:27:39;31.00;99.90
34698;DHT22;61391;50.922;6.928;2023-06-26T09:30:06;32.10;97.10
34698;DHT22;61391;50.922;6.928;2023-06-26T09:32:37;32.60;95.30
34698;DHT22;61391;50.922;6.928;2023-06-26T09:35:03;32.00;94.80
34698;DHT22;61391;50.922;6.928;2023-06-26T09:37:30;30.80;96.70
34698;DHT22;61391;50.922;6.928;2023-06-26T09:39:56;30.40;99.30
34698;DHT22;61391;50.922;6.928;2023-06-26T09:42:23;31.30;95.30
34698;DHT22;61391;50.922;6.928;2023-06-26T09:44:48;31.90;93.30
34698;DHT22;61391;50.922;6.928;2023-06-26T09:47:19;31.20;94.10
34698;DHT22;61391;50.922;6.928;2023-06-26T09:49:45;31.80;94.10
34698;DHT22;61391;50.922;6.928;2023-06-26T09:52:18;31.90;93.60
34698;DHT22;61391;50.922;6.928;2023-06-26T09:54:45;32.00;93.00
34698;DHT22;61391;50.922;6.928;2023-06-26T09:57:19;32.80;92.40
34698;DHT22;61391;50.922;6.928;2023-06-26T09:59:45;33.70;91.40
34698;DHT22;61391;50.922;6.928;2023-06-26T10:02:11;33.70;90.00
34698;DHT22;61391;50.922;6.928;2023-06-26T10:04:37;33.00;90.20
34698;DHT22;61391;50.922;6.928;2023-06-26T10:07:06;32.00;90.70
34698;DHT22;61391;50.922;6.928;2023-06-26T10:09:32;31.60;91.70
34698;DHT22;61391;50.922;6.928;2023-06-26T10:12:03;32.40;90.90
34698;DHT22;61391;50.922;6.928;2023-06-26T10:14:37;33.30;89.30
34698;DHT22;61391;50.922;6.928;2023-06-26T10:17:09;33.70;87.10
34698;DHT22;61391;50.922;6.928;2023-06-26T10:19:35;32.60;87.70
34698;DHT22;61391;50.922;6.928;2023-06-26T10:22:03;32.30;87.80
34698;DHT22;61391;50.922;6.928;2023-06-26T10:24:34;31.80;87.50
34698;DHT22;61391;50.922;6.928;2023-06-26T10:27:08;30.80;89.70
34698;DHT22;61391;50.922;6.928;2023-06-26T10:29:35;30.60;91.30
34698;DHT22;61391;50.922;6.928;2023-06-26T10:32:02;30.90;91.30
34698;DHT22;61391;50.922;6.928;2023-06-26T10:34:30;31.80;90.20
34698;DHT22;61391;50.922;6.928;2023-06-26T10:37:02;32.70;85.90
34698;DHT22;61391;50.922;6.928;2023-06-26T10:39:48;33.30;81.60
34698;DHT22;61391;50.922;6.928;2023-06-26T10:42:16;33.60;82.60
34698;DHT22;61391;50.922;6.928;2023-06-26T10:44:44;34.60;80.50
34698;DHT22;61391;50.922;6.928;2023-06-26T10:47:11;35.40;78.30
34698;DHT22;61391;50.922;6.928;2023-06-26T10:49:37;34.30;77.70
34698;DHT22;61391;50.922;6.928;2023-06-26T10:52:08;34.00;78.50
34698;DHT22;61391;50.922;6.928;2023-06-26T10:54:33;33.00;81.10
34698;DHT22;61391;50.922;6.928;2023-06-26T10:56:59;32.50;79.80
34698;DHT22;61391;50.922;6.928;2023-06-26T10:59:30;33.40;79.20
34698;DHT22;61391;50.922;6.928;2023-06-26T11:02:00;34.30;78.20
34698;DHT22;61391;50.922;6.928;2023-06-26T11:04:59;34.50;75.60
34698;DHT22;61391;50.922;6.928;2023-06-26T11:07:26;34.40;76.20
34698;DHT22;61391;50.922;6.928;2023-06-26T11:09:55;34.00;76.20
34698;DHT22;61391;50.922;6.928;2023-06-26T11:15:06;33.00;74.50
34698;DHT22;61391;50.922;6.928;2023-06-26T11:17:33;33.00;73.70
34698;DHT22;61391;50.922;6.928;2023-06-26T11:19:59;33.90;73.50
34698;DHT22;61391;50.922;6.928;2023-06-26T11:22:26;34.30;71.70
34698;DHT22;61391;50.922;6.928;2023-06-26T11:24:55;35.00;71.40
34698;DHT22;61391;50.922;6.928;2023-06-26T11:27:24;35.00;69.50
34698;DHT22;61391;50.922;6.928;2023-06-26T11:29:50;35.90;67.60
34698;DHT22;61391;50.922;6.928;2023-06-26T11:32:15;35.00;70.00
34698;DHT22;61391;50.922;6.928;2023-06-26T11:34:41;34.80;70.10
34698;DHT22;61391;50.922;6.928;2023-06-26T11:37:08;33.60;71.20
34698;DHT22;61391;50.922;6.928;2023-06-26T11:39:34;32.60;70.90
34698;DHT22;61391;50.922;6.928;2023-06-26T11:42:01;31.90;71.40
34698;DHT22;61391;50.922;6.928;2023-06-26T11:44:31;31.60;72.30
34698;DHT22;61391;50.922;6.928;2023-06-26T11:46:58;32.70;71.20
34698;DHT22;61391;50.922;6.928;2023-06-26T11:49:24;33.40;69.60
34698;DHT22;61391;50.922;6.928;2023-06-26T11:51:52;33.60;68.30
34698;DHT22;61391;50.922;6.928;2023-06-26T11:54:27;32.80;67.20
34698;DHT22;61391;50.922;6.928;2023-06-26T11:56:54;33.20;67.90
34698;DHT22;61391;50.922;6.928;2023-06-26T11:59:22;33.50;68.80
34698;DHT22;61391;50.922;6.928;2023-06-26T12:01:50;33.30;69.10
34698;DHT22;61391;50.922;6.928;2023-06-26T12:04:19;33.50;69.90
34698;DHT22;61391;50.922;6.928;2023-06-26T12:06:47;34.00;69.00
34698;DHT22;61391;50.922;6.928;2023-06-26T12:09:13;33.80;69.90
34698;DHT22;61391;50.922;6.928;2023-06-26T12:11:43;33.90;66.20
34698;DHT22;61391;50.922;6.928;2023-06-26T12:14:11;34.30;65.60
34698;DHT22;61391;50.922;6.928;2023-06-26T12:16:37;33.60;64.30
34698;DHT22;61391;50.922;6.928;2023-06-26T12:19:07;32.00;67.00
34698;DHT22;61391;50.922;6.928;2023-06-26T12:24:02;32.60;67.00
34698;DHT22;61391;50.922;6.928;2023-06-26T12:26:28;32.20;68.20
34698;DHT22;61391;50.922;6.928;2023-06-26T12:29:16;31.70;68.80
34698;DHT22;61391;50.922;6.928;2023-06-26T12:31:50;31.10;69.40
34698;DHT22;61391;50.922;6.928;2023-06-26T12:34:18;30.40;72.40
34698;DHT22;61391;50.922;6.928;2023-06-26T12:36:49;30.10;74.00
34698;DHT22;61391;50.922;6.928;2023-06-26T12:39:20;30.00;72.40
34698;DHT22;61391;50.922;6.928;2023-06-26T12:41:52;30.00;73.50
34698;DHT22;61391;50.922;6.928;2023-06-26T12:44:24;29.80;71.90
34698;DHT22;61391;50.922;6.928;2023-06-26T12:47:00;29.80;72.80
34698;DHT22;61391;50.922;6.928;2023-06-26T12:49:35;29.60;73.50
34698;DHT22;61391;50.922;6.928;2023-06-26T12:52:03;29.40;75.30
34698;DHT22;61391;50.922;6.928;2023-06-26T12:54:29;29.40;74.80
34698;DHT22;61391;50.922;6.928;2023-06-26T12:56:54;29.10;74.70
34698;DHT22;61391;50.922;6.928;2023-06-26T12:59:21;28.90;73.70
34698;DHT22;61391;50.922;6.928;2023-06-26T13:01:46;28.90;73.90
34698;DHT22;61391;50.922;6.928;2023-06-26T13:04:12;29.10;73.90
34698;DHT22;61391;50.922;6.928;2023-06-26T13:06:38;29.20;75.00
34698;DHT22;61391;50.922;6.928;2023-06-26T13:09:03;29.20;74.70
34698;DHT22;61391;50.922;6.928;2023-06-26T13:11:30;29.10;74.20
34698;DHT22;61391;50.922;6.928;2023-06-26T13:13:56;28.80;74.30
34698;DHT22;61391;50.922;6.928;2023-06-26T13:16:22;28.80;73.70
34698;DHT22;61391;50.922;6.928;2023-06-26T13:18:47;28.70;73.90
34698;DHT22;61391;50.922;6.928;2023-06-26T13:21:13;28.70;74.10
34698;DHT22;61391;50.922;6.928;2023-06-26T13:23:39;28.50;73.80
34698;DHT22;61391;50.922;6.928;2023-06-26T13:26:05;28.40;74.00
34698;DHT22;61391;50.922;6.928;2023-06-26T13:28:31;28.20;75.50
34698;DHT22;61391;50.922;6.928;2023-06-26T13:30:57;28.20;77.40
34698;DHT22;61391;50.922;6.928;2023-06-26T13:33:22;28.20;76.50
34698;DHT22;61391;50.922;6.928;2023-06-26T13:35:51;28.30;75.50
34698;DHT22;61391;50.922;6.928;2023-06-26T13:38:22;28.50;75.70
34698;DHT22;61391;50.922;6.928;2023-06-26T13:40:53;28.80;75.00
34698;DHT22;61391;50.922;6.928;2023-06-26T13:43:21;28.80;74.70
34698;DHT22;61391;50.922;6.928;2023-06-26T13:45:48;28.70;74.10
34698;DHT22;61391;50.922;6.928;2023-06-26T13:48:13;28.60;74.00
34698;DHT22;61391;50.922;6.928;2023-06-26T13:50:39;28.50;72.90
34698;DHT22;61391;50.922;6.928;2023-06-26T13:56:27;28.20;73.40
34698;DHT22;61391;50.922;6.928;2023-06-26T13:58:55;28.10;73.90
34698;DHT22;61391;50.922;6.928;2023-06-26T14:01:21;28.20;76.50
34698;DHT22;61391;50.922;6.928;2023-06-26T14:03:47;28.30;73.00
34698;DHT22;61391;50.922;6.928;2023-06-26T14:06:12;28.30;72.50
34698;DHT22;61391;50.922;6.928;2023-06-26T14:08:38;28.30;72.60
34698;DHT22;61391;50.922;6.928;2023-06-26T14:14:26;28.50;71.00
34698;DHT22;61391;50.922;6.928;2023-06-26T14:16:51;28.50;68.70
34698;DHT22;61391;50.922;6.928;2023-06-26T14:19:17;28.30;68.90
34698;DHT22;61391;50.922;6.928;2023-06-26T14:21:45;28.20;69.10
34698;DHT22;61391;50.922;6.928;2023-06-26T14:24:11;28.10;69.00
34698;DHT22;61391;50.922;6.928;2023-06-26T14:26:36;28.10;68.60
34698;DHT22;61391;50.922;6.928;2023-06-26T14:29:04;28.00;69.00
34698;DHT22;61391;50.922;6.928;2023-06-26T14:31:31;28.10;71.00
34698;DHT22;61391;50.922;6.928;2023-06-26T14:33:56;28.30;71.10
34698;DHT22;61391;50.922;6.928;2023-06-26T14:36:24;28.30;70.40
34698;DHT22;61391;50.922;6.928;2023-06-26T14:38:50;28.30;70.30
34698;DHT22;61391;50.922;6.928;2023-06-26T14:41:15;27.90;71.50
34698;DHT22;61391;50.922;6.928;2023-06-26T14:43:41;27.80;72.90
34698;DHT22;61391;50.922;6.928;2023-06-26T14:49:29;27.70;74.20
34698;DHT22;61391;50.922;6.928;2023-06-26T14:51:54;27.80;74.20
34698;DHT22;61391;50.922;6.928;2023-06-26T14:54:20;27.70;73.90
34698;DHT22;61391;50.922;6.928;2023-06-26T14:56:47;27.40;74.10
34698;DHT22;61391;50.922;6.928;2023-06-26T14:59:13;27.40;74.90
34698;DHT22;61391;50.922;6.928;2023-06-26T15:01:39;27.50;75.00
34698;DHT22;61391;50.922;6.928;2023-06-26T15:04:05;27.60;73.90
34698;DHT22;61391;50.922;6.928;2023-06-26T15:06:31;27.50;73.40
34698;DHT22;61391;50.922;6.928;2023-06-26T15:08:57;27.60;73.90
34698;DHT22;61391;50.922;6.928;2023-06-26T15:11:23;27.60;73.20
34698;DHT22;61391;50.922;6.928;2023-06-26T15:13:49;27.70;72.30
34698;DHT22;61391;50.922;6.928;2023-06-26T15:16:20;27.60;70.90
34698;DHT22;61391;50.922;6.928;2023-06-26T15:18:46;27.50;71.10
34698;DHT22;61391;50.922;6.928;2023-06-26T15:21:12;27.40;71.70
34698;DHT22;61391;50.922;6.928;2023-06-26T15:23:37;27.50;72.20
34698;DHT22;61391;50.922;6.928;2023-06-26T15:26:04;27.50;72.70
34698;DHT22;61391;50.922;6.928;2023-06-26T15:28:30;27.60;71.80
34698;DHT22;61391;50.922;6.928;2023-06-26T15:30:55;27.60;72.40
34698;DHT22;61391;50.922;6.928;2023-06-26T15:33:21;27.40;72.20
34698;DHT22;61391;50.922;6.928;2023-06-26T15:35:46;27.40;70.50
34698;DHT22;61391;50.922;6.928;2023-06-26T15:38:12;27.20;69.30
34698;DHT22;61391;50.922;6.928;2023-06-26T15:44:00;27.10;70.80
34698;DHT22;61391;50.922;6.928;2023-06-26T15:46:26;26.90;70.70
34698;DHT22;61391;50.922;6.928;2023-06-26T15:48:51;26.80;70.60
34698;DHT22;61391;50.922;6.928;2023-06-26T15:51:17;26.90;70.80
34698;DHT22;61391;50.922;6.928;2023-06-26T15:57:05;26.80;70.20
34698;DHT22;61391;50.922;6.928;2023-06-26T16:02:52;26.70;71.90
34698;DHT22;61391;50.922;6.928;2023-06-26T16:05:18;26.80;72.40
34698;DHT22;61391;50.922;6.928;2023-06-26T16:07:43;26.90;72.00
34698;DHT22;61391;50.922;6.928;2023-06-26T16:10:09;26.90;72.80
34698;DHT22;61391;50.922;6.928;2023-06-26T16:12:35;26.90;72.90
34698;DHT22;61391;50.922;6.928;2023-06-26T16:15:02;27.00;72.90
34698;DHT22;61391;50.922;6.928;2023-06-26T16:17:28;27.00;72.70
34698;DHT22;61391;50.922;6.928;2023-06-26T16:19:56;26.70;73.40
34698;DHT22;61391;50.922;6.928;2023-06-26T16:22:22;26.70;73.60
34698;DHT22;61391;50.922;6.928;2023-06-26T16:24:47;26.70;74.00
34698;DHT22;61391;50.922;6.928;2023-06-26T16:27:13;26.60;73.80
34698;DHT22;61391;50.922;6.928;2023-06-26T16:29:39;26.50;73.80
34698;DHT22;61391;50.922;6.928;2023-06-26T16:32:07;26.30;75.00
34698;DHT22;61391;50.922;6.928;2023-06-26T16:37:55;26.40;74.10
34698;DHT22;61391;50.922;6.928;2023-06-26T16:40:21;26.30;74.70